Time;durP1;ratioP1;P1;durP2;ratioP2;P2;SDS_P1;SDS_P2;PMS_P1;PMS_P2;Temp;Humidity;BMP_temperature;BMP_pressure;BME280_temperature;BME280_humidity;BME280_pressure;Samples;Min_cycle;Max_cycle;Signal;HPM_P1;HPM_P2
2021/12/22 00:00:00;;;;;;;40.40;36.20;;;-2.70;99.90;;;;;;5010094;28;20045;-69
2021/12/22 00:02:29;;;;;;;37.57;33.83;;;-2.80;99.90;;;;;;5025558;28;20087;-69
2021/12/22 00:04:56;;;;;;;37.03;33.47;;;-2.80;99.90;;;;;;5026624;28;20128;-69
2021/12/22 00:07:22;;;;;;;38.03;34.23;;;-2.80;99.90;;;;;;5025743;28;20057;-69
2021/12/22 00:09:48;;;;;;;49.53;43.50;;;-2.80;99.90;;;;;;5008710;28;20045;-69
2021/12/22 00:12:17;;;;;;;37.37;33.57;;;-2.80;99.90;;;;;;5026987;28;20395;-69
2021/12/22 00:14:42;;;;;;;38.97;35.17;;;-2.90;99.90;;;;;;5010961;28;20076;-69
2021/12/22 00:17:09;;;;;;;37.30;33.70;;;-2.90;99.90;;;;;;5027325;28;20076;-69
2021/12/22 00:19:35;;;;;;;35.83;32.33;;;-2.90;99.90;;;;;;5042047;28;20053;-69
2021/12/22 00:22:01;;;;;;;36.90;33.07;;;-2.90;99.90;;;;;;5026033;28;20048;-69
2021/12/22 00:24:27;;;;;;;37.00;33.27;;;-2.90;99.90;;;;;;4993203;28;20048;-69
2021/12/22 00:26:54;;;;;;;37.93;33.07;;;-3.00;99.90;;;;;;5026984;28;20053;-69
2021/12/22 00:29:20;;;;;;;35.77;32.27;;;-3.00;99.90;;;;;;5042791;28;20507;-69
2021/12/22 00:31:57;;;;;;;34.57;30.93;;;-3.10;99.90;;;;;;5026036;28;20040;-69
2021/12/22 00:34:26;;;;;;;35.53;31.93;;;-3.10;99.90;;;;;;5011427;28;20132;-69
2021/12/22 00:36:52;;;;;;;36.57;32.97;;;-3.10;99.90;;;;;;5007632;28;20045;-69
2021/12/22 00:39:21;;;;;;;37.70;33.77;;;-3.10;99.90;;;;;;5042567;28;20041;-69
2021/12/22 00:41:49;;;;;;;37.93;33.93;;;-3.00;99.90;;;;;;4993175;28;20044;-69
2021/12/22 00:44:15;;;;;;;41.03;36.83;;;-3.10;99.90;;;;;;5026213;28;20600;-69
2021/12/22 00:46:41;;;;;;;37.97;34.07;;;-3.10;99.90;;;;;;5041603;28;20049;-69
2021/12/22 00:49:07;;;;;;;35.90;32.30;;;-3.10;99.90;;;;;;5025808;28;20052;-69
2021/12/22 00:51:33;;;;;;;36.60;32.77;;;-3.10;99.90;;;;;;5040070;28;20051;-69
2021/12/22 00:54:02;;;;;;;34.37;30.70;;;-3.10;99.90;;;;;;5008094;28;20151;-69
2021/12/22 00:56:28;;;;;;;33.43;29.97;;;-3.10;99.90;;;;;;5042020;28;20045;-69
2021/12/22 00:58:53;;;;;;;33.70;30.37;;;-3.20;99.90;;;;;;5026330;28;20055;-69
2021/12/22 01:01:19;;;;;;;35.50;31.70;;;-3.20;99.90;;;;;;5038557;28;20507;-69
2021/12/22 01:03:45;;;;;;;36.47;32.83;;;-3.20;99.90;;;;;;5024622;28;20045;-69
2021/12/22 01:06:13;;;;;;;38.50;34.40;;;-3.20;99.90;;;;;;5009850;28;20066;-71
2021/12/22 01:08:39;;;;;;;37.20;33.40;;;-3.20;99.90;;;;;;5023345;28;20556;-71
2021/12/22 01:11:06;;;;;;;38.57;34.37;;;-3.20;99.90;;;;;;5025372;28;20049;-71
2021/12/22 01:13:32;;;;;;;37.83;33.83;;;-3.30;99.90;;;;;;5008023;28;20113;-71
2021/12/22 01:16:01;;;;;;;38.30;34.43;;;-3.30;99.90;;;;;;5026002;28;20104;-71
2021/12/22 01:18:31;;;;;;;38.13;34.33;;;-3.20;99.90;;;;;;5038620;28;20049;-71
2021/12/22 01:23:23;;;;;;;34.37;30.80;;;-3.20;99.90;;;;;;5041040;28;20087;-71
2021/12/22 01:25:49;;;;;;;35.17;31.70;;;-3.20;99.90;;;;;;5041810;28;20497;-71
2021/12/22 01:28:16;;;;;;;40.23;36.00;;;-3.20;99.90;;;;;;5042901;28;20041;-71
2021/12/22 01:30:45;;;;;;;42.30;37.37;;;-3.20;99.90;;;;;;5042187;28;20519;-71
2021/12/22 01:33:12;;;;;;;40.13;35.93;;;-3.30;99.90;;;;;;5043187;28;20045;-71
2021/12/22 01:35:38;;;;;;;41.90;37.53;;;-3.30;99.90;;;;;;5025481;28;20051;-71
2021/12/22 01:38:05;;;;;;;39.07;34.90;;;-3.30;99.90;;;;;;5042614;28;20732;-71
2021/12/22 01:40:33;;;;;;;39.03;34.93;;;-3.30;99.90;;;;;;5025861;28;20045;-71
2021/12/22 01:43:01;;;;;;;37.07;33.07;;;-3.30;99.90;;;;;;5042982;28;20702;-71
2021/12/22 01:46:09;;;;;;;37.27;33.27;;;-3.40;99.90;;;;;;5026410;28;20569;-71
2021/12/22 01:51:34;;;;;;;35.50;31.83;;;-3.40;99.90;;;;;;5040351;28;20072;-71
2021/12/22 01:54:06;;;;;;;39.67;35.67;;;-3.40;99.90;;;;;;5040572;28;20049;-71
2021/12/22 01:56:34;;;;;;;36.00;32.10;;;-3.40;99.90;;;;;;5041879;28;20519;-71
2021/12/22 01:59:03;;;;;;;34.87;31.30;;;-3.40;99.90;;;;;;5027216;28;20037;-71
2021/12/22 02:01:32;;;;;;;34.27;30.77;;;-3.40;99.90;;;;;;5043064;28;20033;-71
2021/12/22 02:03:59;;;;;;;34.67;31.03;;;-3.50;99.90;;;;;;5027428;28;20080;-71
2021/12/22 02:06:28;;;;;;;36.53;32.53;;;-3.50;99.90;;;;;;5010644;28;20052;-71
2021/12/22 02:08:55;;;;;;;35.07;29.20;;;-3.50;99.90;;;;;;5040054;28;20049;-71
2021/12/22 02:11:22;;;;;;;32.47;28.97;;;-3.50;99.90;;;;;;5026950;28;20091;-71
2021/12/22 02:13:55;;;;;;;37.07;33.03;;;-3.50;99.90;;;;;;5042315;28;20500;-71
2021/12/22 02:16:26;;;;;;;34.27;30.63;;;-3.50;99.90;;;;;;5028998;28;20103;-70
2021/12/22 02:18:54;;;;;;;33.97;30.20;;;-3.50;99.90;;;;;;5047384;28;20092;-71
2021/12/22 02:21:22;;;;;;;33.57;29.97;;;-3.50;99.90;;;;;;5045597;28;20419;-71
2021/12/22 02:23:47;;;;;;;37.77;33.07;;;-3.50;99.90;;;;;;5043558;28;20057;-71
2021/12/22 02:27:21;;;;;;;38.90;34.70;;;-3.40;99.90;;;;;;5047766;28;20044;-71
2021/12/22 02:29:21;;;;;;;33.77;30.13;;;-3.40;99.90;;;;;;5039815;28;20056;-71
2021/12/22 02:32:06;;;;;;;37.60;33.60;;;-3.40;99.90;;;;;;5015783;28;20547;-71
2021/12/22 02:34:41;;;;;;;34.07;30.37;;;-3.40;99.90;;;;;;5025625;28;20060;-70
2021/12/22 02:37:13;;;;;;;35.60;31.37;;;-3.40;99.90;;;;;;5031553;28;20084;-70
2021/12/22 02:39:58;;;;;;;33.20;29.60;;;-3.30;99.90;;;;;;5046747;28;20091;-70
2021/12/22 02:42:32;;;;;;;34.87;31.17;;;-3.30;99.90;;;;;;5031061;28;20091;-73
2021/12/22 02:45:25;;;;;;;34.47;28.73;;;-3.20;99.90;;;;;;5047707;28;20120;-72
2021/12/22 02:47:51;;;;;;;32.63;29.30;;;-3.30;99.90;;;;;;5046139;28;20140;-70
2021/12/22 02:50:17;;;;;;;33.23;28.83;;;-3.40;99.90;;;;;;5048205;28;20037;-69
2021/12/22 02:53:04;;;;;;;39.07;32.97;;;-3.40;99.90;;;;;;5042549;28;20051;-69
2021/12/22 02:55:46;;;;;;;33.87;29.83;;;-3.40;99.90;;;;;;5045872;28;20048;-71
2021/12/22 02:58:41;;;;;;;30.00;26.87;;;-3.40;99.90;;;;;;5047360;28;20037;-71
2021/12/22 03:06:04;;;;;;;34.20;28.53;;;-3.50;99.90;;;;;;5027423;28;20061;-69
2021/12/22 03:08:30;;;;;;;31.88;27.55;;;-3.50;99.90;;;;;;5044498;28;20132;-69
2021/12/22 03:10:56;;;;;;;34.13;30.37;;;-3.50;99.90;;;;;;5030481;28;20139;-69
2021/12/22 03:13:23;;;;;;;33.37;29.73;;;-3.50;99.90;;;;;;5030589;28;20066;-69
2021/12/22 03:15:50;;;;;;;30.37;26.83;;;-3.60;99.90;;;;;;5027789;28;20373;-69
2021/12/22 03:18:17;;;;;;;33.53;29.43;;;-3.50;99.90;;;;;;5045636;28;20044;-69
2021/12/22 03:20:48;;;;;;;32.33;27.83;;;-3.50;99.90;;;;;;5026683;28;20056;-69
2021/12/22 03:23:15;;;;;;;30.17;27.03;;;-3.60;99.90;;;;;;5012354;28;20553;-69
2021/12/22 03:25:40;;;;;;;32.27;28.00;;;-3.50;99.90;;;;;;5060767;28;20045;-69
2021/12/22 03:28:06;;;;;;;30.23;27.03;;;-3.60;99.90;;;;;;5028806;28;20048;-69
2021/12/22 03:30:33;;;;;;;30.83;27.73;;;-3.60;99.90;;;;;;5028645;28;20439;-69
2021/12/22 03:32:59;;;;;;;33.07;29.00;;;-3.60;99.90;;;;;;5043049;28;20052;-69
2021/12/22 03:35:25;;;;;;;33.77;30.17;;;-3.50;99.90;;;;;;5029042;28;20040;-69
2021/12/22 03:37:55;;;;;;;38.20;32.87;;;-3.60;99.90;;;;;;5010690;28;20411;-69
2021/12/22 03:40:24;;;;;;;34.15;30.52;;;-3.60;99.90;;;;;;5029710;28;20447;-69
2021/12/22 03:42:50;;;;;;;32.93;29.07;;;-3.60;99.90;;;;;;5012639;28;20060;-69
2021/12/22 03:45:16;;;;;;;33.37;28.70;;;-3.60;99.90;;;;;;5029991;28;20071;-69
2021/12/22 03:47:43;;;;;;;31.90;27.97;;;-3.60;99.90;;;;;;5029114;28;20044;-70
2021/12/22 03:50:10;;;;;;;35.47;30.97;;;-3.60;99.90;;;;;;5045793;28;20124;-69
2021/12/22 03:52:36;;;;;;;37.17;32.20;;;-3.60;99.90;;;;;;5025488;28;20037;-69
2021/12/22 03:55:02;;;;;;;31.23;27.83;;;-3.60;99.90;;;;;;5043617;28;20060;-69
2021/12/22 03:57:31;;;;;;;33.70;29.97;;;-3.60;99.90;;;;;;5045278;28;20495;-69
2021/12/22 03:59:59;;;;;;;33.27;29.67;;;-3.60;99.90;;;;;;5045261;28;20045;-69
2021/12/22 04:02:26;;;;;;;32.77;27.60;;;-3.60;99.90;;;;;;5042591;28;20045;-69
2021/12/22 04:04:52;;;;;;;36.70;30.60;;;-3.70;99.90;;;;;;5011908;28;20127;-69
2021/12/22 04:07:19;;;;;;;35.40;30.87;;;-3.70;99.90;;;;;;5028719;28;20047;-69
2021/12/22 04:09:45;;;;;;;31.73;28.33;;;-3.70;99.90;;;;;;5042699;28;21141;-69
2021/12/22 04:12:11;;;;;;;34.70;31.07;;;-3.70;99.90;;;;;;5044556;28;20105;-69
2021/12/22 04:14:38;;;;;;;33.80;29.60;;;-3.70;99.90;;;;;;5027936;28;20431;-70
2021/12/22 04:17:04;;;;;;;32.37;28.87;;;-3.70;99.90;;;;;;5027968;28;20036;-69
2021/12/22 04:19:30;;;;;;;33.70;29.73;;;-3.70;99.90;;;;;;4983066;28;1295005;-69
2021/12/22 04:21:56;;;;;;;37.47;30.57;;;-3.70;99.90;;;;;;5027562;28;20040;-69
2021/12/22 04:24:22;;;;;;;31.07;27.57;;;-3.70;99.90;;;;;;5028948;28;20098;-69
2021/12/22 04:26:50;;;;;;;36.07;30.60;;;-3.70;99.90;;;;;;5045053;28;20060;-69
2021/12/22 04:29:19;;;;;;;33.73;28.50;;;-3.70;99.90;;;;;;5029122;28;20111;-70
2021/12/22 04:31:45;;;;;;;35.90;31.00;;;-3.70;99.90;;;;;;5044937;28;20407;-69
2021/12/22 04:34:11;;;;;;;32.77;28.73;;;-3.70;99.90;;;;;;5028217;28;20037;-69
2021/12/22 04:36:41;;;;;;;32.97;28.83;;;-3.70;99.90;;;;;;5040741;28;20045;-69
2021/12/22 04:39:09;;;;;;;37.65;32.00;;;-3.70;99.90;;;;;;5026160;28;20541;-69
2021/12/22 04:41:35;;;;;;;34.87;31.27;;;-3.70;99.90;;;;;;5044460;28;20373;-69
2021/12/22 04:44:02;;;;;;;33.13;29.23;;;-3.80;99.90;;;;;;5044705;28;20493;-70
2021/12/22 04:46:27;;;;;;;32.80;28.83;;;-3.80;99.90;;;;;;5012133;28;20039;-69
2021/12/22 04:48:54;;;;;;;34.70;30.10;;;-3.80;99.90;;;;;;5041305;28;20052;-69
2021/12/22 04:51:31;;;;;;;32.57;29.13;;;-3.80;99.90;;;;;;5027544;28;20053;-69
2021/12/22 04:54:16;;;;;;;32.30;27.67;;;-3.90;99.90;;;;;;5041837;28;20728;-69
2021/12/22 04:56:42;;;;;;;31.57;27.07;;;-3.90;99.90;;;;;;5028103;28;20041;-69
2021/12/22 04:59:09;;;;;;;32.50;26.97;;;-3.90;99.90;;;;;;5028298;28;20091;-69
2021/12/22 05:01:34;;;;;;;33.50;29.90;;;-3.90;99.90;;;;;;5026506;28;20037;-69
2021/12/22 05:04:00;;;;;;;34.53;29.90;;;-3.90;99.90;;;;;;5027348;28;20102;-69
2021/12/22 05:06:26;;;;;;;33.10;28.27;;;-3.90;99.90;;;;;;5044482;28;20075;-70
2021/12/22 05:08:52;;;;;;;34.10;30.27;;;-3.90;99.90;;;;;;5040665;28;20053;-70
2021/12/22 05:11:18;;;;;;;32.63;27.90;;;-3.90;99.90;;;;;;5044997;28;20083;-70
2021/12/22 05:13:44;;;;;;;32.23;28.40;;;-3.90;99.90;;;;;;5045268;28;20041;-70
2021/12/22 05:16:18;;;;;;;34.37;30.43;;;-3.90;99.90;;;;;;5045662;28;20052;-70
2021/12/22 05:21:21;;;;;;;33.83;29.40;;;-3.90;99.90;;;;;;5041301;28;20480;-70
2021/12/22 05:23:50;;;;;;;36.50;29.83;;;-3.90;99.90;;;;;;5043143;28;20049;-70
2021/12/22 05:26:17;;;;;;;36.45;31.23;;;-3.90;99.90;;;;;;5025379;28;20503;-70
2021/12/22 05:28:42;;;;;;;34.70;29.50;;;-4.00;99.90;;;;;;5026791;28;20040;-70
2021/12/22 05:31:08;;;;;;;35.03;29.33;;;-4.00;99.90;;;;;;5027934;28;20123;-70
2021/12/22 05:33:34;;;;;;;31.07;27.33;;;-3.90;99.90;;;;;;5010770;28;20053;-70
2021/12/22 05:36:01;;;;;;;32.93;29.30;;;-4.00;99.90;;;;;;5011764;28;20483;-69
2021/12/22 05:38:26;;;;;;;33.63;28.57;;;-4.00;99.90;;;;;;4994309;28;20071;-69
2021/12/22 05:40:52;;;;;;;35.07;30.43;;;-4.00;99.90;;;;;;5043999;28;20084;-69
2021/12/22 05:43:18;;;;;;;34.37;30.13;;;-4.00;99.90;;;;;;5009636;28;20091;-69
2021/12/22 05:45:44;;;;;;;35.03;27.50;;;-4.00;99.90;;;;;;5025473;28;20037;-69
2021/12/22 05:48:10;;;;;;;31.90;26.80;;;-4.00;99.90;;;;;;5027468;28;20064;-69
2021/12/22 05:50:36;;;;;;;33.23;28.00;;;-4.00;99.90;;;;;;5026143;28;20442;-69
2021/12/22 05:53:03;;;;;;;33.63;28.93;;;-3.90;99.90;;;;;;5008909;28;20045;-69
2021/12/22 05:55:29;;;;;;;33.93;28.83;;;-3.90;99.90;;;;;;5043477;28;20573;-69
2021/12/22 05:57:55;;;;;;;33.00;29.40;;;-3.90;99.90;;;;;;5043902;28;20052;-69
2021/12/22 06:00:22;;;;;;;34.67;30.87;;;-3.90;99.90;;;;;;5025588;28;21318;-69
2021/12/22 06:02:48;;;;;;;36.40;29.13;;;-4.00;99.90;;;;;;5040169;28;20049;-69
2021/12/22 06:05:14;;;;;;;30.77;27.23;;;-4.00;99.90;;;;;;5044147;28;20733;-69
2021/12/22 06:07:40;;;;;;;32.80;28.43;;;-4.00;99.90;;;;;;5027211;28;20132;-69
2021/12/22 06:10:06;;;;;;;35.57;30.53;;;-4.00;99.90;;;;;;5009513;28;20091;-70
2021/12/22 06:12:32;;;;;;;32.80;28.40;;;-4.00;99.90;;;;;;5026831;28;20500;-69
2021/12/22 06:15:01;;;;;;;32.33;28.80;;;-3.90;99.90;;;;;;5044405;28;20061;-69
2021/12/22 06:17:27;;;;;;;33.03;28.43;;;-4.00;99.90;;;;;;5011344;28;20060;-70
2021/12/22 06:19:53;;;;;;;32.37;28.60;;;-4.00;99.90;;;;;;5023058;28;20089;-69
2021/12/22 06:22:19;;;;;;;32.47;27.77;;;-4.00;99.90;;;;;;5024047;28;20052;-69
2021/12/22 06:24:48;;;;;;;33.77;27.83;;;-4.00;99.90;;;;;;5037197;28;20590;-69
2021/12/22 06:27:14;;;;;;;31.53;27.50;;;-4.00;99.90;;;;;;5033139;28;20476;-70
2021/12/22 06:29:40;;;;;;;32.50;28.13;;;-4.00;99.90;;;;;;5015368;28;20072;-70
2021/12/22 06:32:06;;;;;;;33.93;28.97;;;-4.10;99.90;;;;;;5049419;28;20056;-70
2021/12/22 06:34:32;;;;;;;31.03;27.13;;;-4.00;99.90;;;;;;5042346;28;20326;-70
2021/12/22 06:37:01;;;;;;;34.10;28.40;;;-4.10;99.90;;;;;;5043718;28;20583;-70
2021/12/22 06:39:27;;;;;;;32.80;29.20;;;-4.00;99.90;;;;;;5043191;28;20098;-69
2021/12/22 06:41:53;;;;;;;34.87;29.43;;;-4.00;99.90;;;;;;5039928;28;20052;-70
2021/12/22 06:44:19;;;;;;;30.20;26.07;;;-4.00;99.90;;;;;;5033438;28;20119;-70
2021/12/22 06:46:44;;;;;;;34.07;29.77;;;-4.00;99.90;;;;;;5021015;28;20094;-71
2021/12/22 06:49:11;;;;;;;32.90;27.30;;;-4.10;99.90;;;;;;5031817;28;20268;-71
2021/12/22 06:51:38;;;;;;;33.03;28.40;;;-4.00;99.90;;;;;;5032149;28;20044;-71
2021/12/22 06:54:04;;;;;;;33.97;28.27;;;-4.10;99.90;;;;;;5030128;28;20518;-71
2021/12/22 06:56:30;;;;;;;32.83;28.63;;;-4.00;99.90;;;;;;5024005;28;20041;-71
2021/12/22 06:58:57;;;;;;;30.63;26.23;;;-4.00;99.90;;;;;;5021411;28;20053;-71
2021/12/22 07:01:23;;;;;;;34.80;29.23;;;-4.00;99.90;;;;;;5012393;28;20048;-71
2021/12/22 07:03:50;;;;;;;30.70;26.20;;;-4.00;99.90;;;;;;5023628;28;20127;-71
2021/12/22 07:06:16;;;;;;;34.03;28.83;;;-4.00;99.90;;;;;;5009682;28;20044;-71
2021/12/22 07:08:42;;;;;;;32.43;28.20;;;-4.20;99.90;;;;;;5013983;28;20039;-71
2021/12/22 07:11:08;;;;;;;33.70;29.30;;;-4.10;99.90;;;;;;5047055;28;20056;-71
2021/12/22 07:13:33;;;;;;;34.47;30.30;;;-4.10;99.90;;;;;;5028879;28;20033;-71
2021/12/22 07:15:59;;;;;;;35.77;29.53;;;-4.10;99.90;;;;;;5012240;28;20048;-72
2021/12/22 07:18:26;;;;;;;34.27;28.30;;;-4.10;99.90;;;;;;5011342;28;20111;-72
2021/12/22 07:20:52;;;;;;;34.20;28.67;;;-4.10;99.90;;;;;;5045450;28;20056;-72
2021/12/22 07:23:17;;;;;;;35.03;30.57;;;-4.10;99.90;;;;;;5044924;28;20130;-72
2021/12/22 07:25:46;;;;;;;35.43;28.17;;;-4.10;99.90;;;;;;5046990;28;20559;-70
2021/12/22 07:28:12;;;;;;;36.03;29.97;;;-4.10;99.90;;;;;;5026705;28;20511;-70
2021/12/22 07:30:38;;;;;;;36.00;30.40;;;-4.00;99.90;;;;;;5028511;28;20045;-70
2021/12/22 07:33:04;;;;;;;39.27;29.97;;;-4.10;99.90;;;;;;5042421;28;20496;-70
2021/12/22 07:35:45;;;;;;;35.87;29.37;;;-4.00;99.90;;;;;;5009980;28;20056;-70
2021/12/22 07:38:40;;;;;;;38.33;29.10;;;-4.00;99.90;;;;;;5055895;28;20511;-71
2021/12/22 07:41:07;;;;;;;36.17;29.37;;;-4.00;99.90;;;;;;5035199;28;20060;-70
2021/12/22 07:43:34;;;;;;;38.23;29.77;;;-3.90;99.90;;;;;;5026307;28;20144;-70
2021/12/22 07:46:02;;;;;;;36.07;29.20;;;-3.90;99.90;;;;;;5043590;28;20041;-75
2021/12/22 07:48:28;;;;;;;33.43;26.57;;;-3.90;99.90;;;;;;5011781;28;20037;-74
2021/12/22 07:50:55;;;;;;;39.30;29.77;;;-3.80;99.90;;;;;;5029529;28;20692;-75
2021/12/22 07:53:21;;;;;;;39.83;30.37;;;-3.80;99.90;;;;;;5010688;28;20069;-75
2021/12/22 07:55:48;;;;;;;38.73;30.13;;;-3.80;99.90;;;;;;5046347;28;20471;-75
2021/12/22 07:58:14;;;;;;;36.53;29.67;;;-3.80;99.90;;;;;;5046221;28;20450;-75
2021/12/22 08:00:40;;;;;;;34.83;29.33;;;-3.70;99.90;;;;;;5025469;28;20037;-75
2021/12/22 08:03:06;;;;;;;33.83;29.30;;;-3.70;99.90;;;;;;5028165;28;20087;-75
2021/12/22 08:05:32;;;;;;;41.90;32.03;;;-3.70;99.90;;;;;;5046099;28;20102;-75
2021/12/22 08:08:01;;;;;;;40.33;31.30;;;-3.70;99.90;;;;;;5010709;28;20431;-75
2021/12/22 08:10:27;;;;;;;36.83;30.27;;;-3.70;99.90;;;;;;5045812;28;20033;-75
2021/12/22 08:12:52;;;;;;;36.63;31.10;;;-3.70;99.90;;;;;;5044150;28;20459;-75
2021/12/22 08:15:18;;;;;;;39.07;31.10;;;-3.60;99.90;;;;;;5029866;28;20323;-75
2021/12/22 08:17:44;;;;;;;37.93;30.80;;;-3.60;99.90;;;;;;5028494;28;20036;-75
2021/12/22 08:20:11;;;;;;;38.00;30.40;;;-3.60;99.90;;;;;;5027133;28;20056;-75
2021/12/22 08:22:36;;;;;;;37.60;29.87;;;-3.60;99.90;;;;;;5042288;28;20037;-75
2021/12/22 08:25:06;;;;;;;36.27;28.83;;;-3.50;99.90;;;;;;5009699;28;20044;-75
2021/12/22 08:27:32;;;;;;;39.77;31.07;;;-3.50;99.90;;;;;;5028979;28;20434;-75
2021/12/22 08:29:58;;;;;;;38.00;31.27;;;-3.40;99.90;;;;;;5045039;28;20057;-75
2021/12/22 08:32:23;;;;;;;36.47;29.20;;;-3.40;99.90;;;;;;5028888;28;20044;-75
2021/12/22 08:34:54;;;;;;;36.03;29.97;;;-3.40;99.90;;;;;;5044769;28;20134;-75
2021/12/22 08:40:08;;;;;;;37.27;30.03;;;-3.40;99.90;;;;;;5045349;28;20080;-75
2021/12/22 08:42:37;;;;;;;38.53;30.83;;;-3.30;99.90;;;;;;5028417;28;20502;-75
2021/12/22 08:45:04;;;;;;;42.23;32.20;;;-3.20;99.90;;;;;;5045636;28;20043;-75
2021/12/22 08:47:30;;;;;;;34.63;29.13;;;-3.20;99.90;;;;;;5045098;28;20131;-75
2021/12/22 08:49:56;;;;;;;40.37;31.97;;;-3.20;99.90;;;;;;5044913;28;20120;-75
2021/12/22 08:52:22;;;;;;;39.27;31.10;;;-3.10;99.90;;;;;;5027590;28;20037;-75
2021/12/22 08:54:48;;;;;;;37.73;29.73;;;-3.10;99.90;;;;;;5026386;28;20567;-75
2021/12/22 08:57:14;;;;;;;37.13;30.43;;;-3.10;99.90;;;;;;5028689;28;20123;-74
2021/12/22 08:59:39;;;;;;;38.87;29.93;;;-3.00;99.90;;;;;;5044516;28;20052;-74
2021/12/22 09:02:05;;;;;;;37.30;30.27;;;-3.00;99.90;;;;;;5027666;28;20400;-74
2021/12/22 09:04:34;;;;;;;35.40;29.67;;;-2.90;99.90;;;;;;5029438;28;20036;-74
2021/12/22 09:07:01;;;;;;;38.77;30.27;;;-2.90;99.90;;;;;;5013233;28;20045;-74
2021/12/22 09:09:26;;;;;;;37.27;29.63;;;-2.80;99.90;;;;;;5028263;28;20037;-75
2021/12/22 09:11:52;;;;;;;36.53;30.13;;;-2.80;99.90;;;;;;5012190;28;20075;-74
2021/12/22 09:14:20;;;;;;;39.63;31.03;;;-2.70;99.90;;;;;;5045671;28;20148;-74
2021/12/22 09:16:46;;;;;;;35.33;30.00;;;-2.70;99.90;;;;;;5026356;28;20072;-74
2021/12/22 09:19:12;;;;;;;37.23;30.20;;;-2.70;99.90;;;;;;5043727;28;20053;-74
2021/12/22 09:21:39;;;;;;;36.70;29.27;;;-2.70;99.90;;;;;;5045341;28;20464;-74
2021/12/22 09:24:05;;;;;;;40.43;31.00;;;-2.70;99.90;;;;;;5028105;28;20484;-75
2021/12/22 09:26:31;;;;;;;34.30;28.87;;;-2.70;99.90;;;;;;5028651;28;20549;-75
2021/12/22 09:28:59;;;;;;;39.60;29.97;;;-2.60;99.90;;;;;;5027690;28;20528;-74
2021/12/22 09:31:25;;;;;;;34.77;28.70;;;-2.60;99.90;;;;;;5028118;28;20687;-74
2021/12/22 09:33:51;;;;;;;37.27;30.63;;;-2.60;99.90;;;;;;5027439;28;20036;-74
2021/12/22 09:36:18;;;;;;;36.80;29.07;;;-2.60;99.90;;;;;;5027813;28;20036;-74
2021/12/22 09:38:44;;;;;;;35.77;29.30;;;-2.50;99.90;;;;;;5025634;28;20123;-74
2021/12/22 09:41:11;;;;;;;31.67;27.50;;;-2.50;99.90;;;;;;5044048;28;20045;-76
2021/12/22 09:43:38;;;;;;;34.57;29.73;;;-2.50;99.90;;;;;;5042204;28;20047;-75
2021/12/22 09:46:09;;;;;;;33.73;28.00;;;-2.40;99.90;;;;;;5044132;28;20049;-74
2021/12/22 09:48:49;;;;;;;36.47;29.87;;;-2.40;99.90;;;;;;5028077;28;20128;-74
2021/12/22 09:53:52;;;;;;;34.70;27.90;;;-2.30;99.90;;;;;;5042092;28;20052;-74
2021/12/22 09:56:24;;;;;;;35.53;31.48;;;-2.30;99.90;;;;;;5028277;28;20088;-75
2021/12/22 09:58:51;;;;;;;32.93;29.13;;;-2.20;99.90;;;;;;5043564;28;20083;-74
2021/12/22 10:01:22;;;;;;;33.30;28.27;;;-2.20;99.90;;;;;;5042514;28;20491;-74
2021/12/22 10:03:50;;;;;;;31.43;27.97;;;-2.20;99.90;;;;;;5044954;28;20120;-74
2021/12/22 10:06:16;;;;;;;34.23;29.77;;;-2.10;99.90;;;;;;5041865;28;20052;-75
2021/12/22 10:09:03;;;;;;;31.90;28.50;;;-2.10;99.90;;;;;;5043096;28;20324;-74
2021/12/22 10:11:31;;;;;;;31.97;28.23;;;-2.10;99.90;;;;;;5043846;28;20076;-75
2021/12/22 10:13:57;;;;;;;31.77;27.50;;;-2.10;99.90;;;;;;5043894;28;20057;-74
2021/12/22 10:16:27;;;;;;;34.77;27.43;;;-2.00;99.90;;;;;;5041662;28;20080;-74
2021/12/22 10:19:11;;;;;;;33.33;29.73;;;-1.90;99.90;;;;;;5041181;28;20053;-75
2021/12/22 10:21:57;;;;;;;34.23;29.00;;;-1.90;99.90;;;;;;5044268;28;20118;-75
2021/12/22 10:24:38;;;;;;;33.67;28.73;;;-1.80;99.90;;;;;;5043929;28;20040;-74
2021/12/22 10:27:10;;;;;;;30.00;26.77;;;-1.80;99.90;;;;;;5044745;28;20088;-74
2021/12/22 10:29:36;;;;;;;31.77;27.00;;;-1.70;99.90;;;;;;5025266;28;20053;-74
2021/12/22 10:32:12;;;;;;;31.83;28.37;;;-1.70;99.90;;;;;;5026233;28;20489;-74
2021/12/22 10:35:02;;;;;;;32.73;28.00;;;-1.60;99.90;;;;;;5043987;28;20049;-75
2021/12/22 10:37:44;;;;;;;30.37;27.00;;;-1.60;99.90;;;;;;5031597;28;20490;-74
2021/12/22 10:40:28;;;;;;;31.17;26.97;;;-1.60;99.90;;;;;;5047953;28;20114;-75
2021/12/22 10:42:57;;;;;;;30.90;27.47;;;-1.60;99.90;;;;;;5044612;28;20048;-74
2021/12/22 10:45:26;;;;;;;28.50;24.43;;;-1.50;99.90;;;;;;5047918;28;20052;-74
2021/12/22 10:50:45;;;;;;;31.73;27.60;;;-1.50;99.90;;;;;;5046094;28;20045;-75
2021/12/22 10:53:14;;;;;;;33.30;29.43;;;-1.40;99.90;;;;;;5045698;28;20511;-75
2021/12/22 10:55:43;;;;;;;33.77;29.70;;;-1.40;99.90;;;;;;5048822;28;20551;-75
2021/12/22 10:58:23;;;;;;;33.00;27.97;;;-1.40;99.90;;;;;;5047975;28;20053;-75
2021/12/22 11:01:01;;;;;;;29.13;26.13;;;-1.30;99.90;;;;;;5030563;28;20570;-74
2021/12/22 11:03:43;;;;;;;29.63;26.23;;;-1.30;99.90;;;;;;5048072;28;20049;-74
2021/12/22 11:06:30;;;;;;;28.93;25.43;;;-1.20;99.90;;;;;;5030968;28;20055;-75
2021/12/22 11:09:15;;;;;;;30.73;26.30;;;-1.10;99.90;;;;;;5029999;28;21282;-74
2021/12/22 11:11:45;;;;;;;31.30;28.00;;;-1.10;99.90;;;;;;5047564;28;20045;-74
2021/12/22 11:14:19;;;;;;;;;;;-1.00;99.90;;;;;;5030960;28;20471;-75
2021/12/22 11:17:05;;;;;;;29.07;25.73;;;-1.00;99.90;;;;;;5027754;28;19921;-75
2021/12/22 11:19:35;;;;;;;30.17;26.87;;;-1.00;99.90;;;;;;5027818;28;20083;-75
2021/12/22 11:22:16;;;;;;;29.40;26.00;;;-0.80;99.90;;;;;;5034357;28;20053;-76
2021/12/22 11:24:54;;;;;;;28.77;25.33;;;-0.80;99.90;;;;;;5041875;28;20044;-75
2021/12/22 11:27:26;;;;;;;27.70;24.80;;;-0.70;99.90;;;;;;5024441;28;20041;-75
2021/12/22 11:29:57;;;;;;;29.70;25.67;;;-0.70;99.90;;;;;;5041749;28;20096;-76
2021/12/22 11:32:28;;;;;;;27.20;24.30;;;-0.60;99.90;;;;;;5030056;28;20064;-75
2021/12/22 11:34:57;;;;;;;30.40;25.97;;;-0.60;99.90;;;;;;5020663;28;20041;-75
2021/12/22 11:37:24;;;;;;;27.30;24.40;;;-0.60;99.90;;;;;;5022915;28;20045;-75
2021/12/22 11:39:54;;;;;;;27.70;24.73;;;-0.60;99.90;;;;;;5011869;28;20120;-75
2021/12/22 11:42:24;;;;;;;26.45;22.38;;;-0.60;99.90;;;;;;5019315;28;20102;-75
2021/12/22 11:44:59;;;;;;;25.83;23.03;;;-0.60;99.90;;;;;;5031406;28;20072;-75
2021/12/22 11:47:25;;;;;;;29.33;26.17;;;-0.50;99.90;;;;;;5040201;28;20044;-75
2021/12/22 11:49:52;;;;;;;27.70;24.70;;;-0.50;99.90;;;;;;5023075;28;20069;-75
2021/12/22 11:52:32;;;;;;;29.43;26.23;;;-0.50;99.90;;;;;;5019766;28;20041;-75
2021/12/22 11:55:05;;;;;;;;;;;-0.50;99.90;;;;;;5029859;28;20056;-75
2021/12/22 11:57:31;;;;;;;26.47;23.30;;;-0.60;99.90;;;;;;5029913;28;19921;-75
2021/12/22 11:59:56;;;;;;;28.17;24.17;;;-0.50;99.90;;;;;;5019725;28;20051;-75
2021/12/22 12:02:36;;;;;;;25.87;23.07;;;-0.50;99.90;;;;;;5012707;28;20053;-75
2021/12/22 12:05:22;;;;;;;27.38;22.70;;;-0.50;99.90;;;;;;5027572;28;20042;-75
2021/12/22 12:07:52;;;;;;;28.60;22.50;;;-0.40;99.90;;;;;;5038945;28;20041;-76
2021/12/22 12:10:40;;;;;;;25.63;22.92;;;-0.40;99.90;;;;;;5029425;28;20630;-75
2021/12/22 12:13:38;;;;;;;27.57;24.30;;;-0.40;99.90;;;;;;5021942;28;20409;-76
2021/12/22 12:22:05;;;;;;;26.30;23.33;;;-0.30;99.90;;;;;;5031914;28;20061;-74
2021/12/22 12:24:38;;;;;;;26.17;23.37;;;-0.30;99.90;;;;;;5026382;28;20624;-75
2021/12/22 12:27:38;;;;;;;26.33;23.03;;;-0.30;99.90;;;;;;5025538;28;20045;-76
2021/12/22 12:30:06;;;;;;;25.85;23.15;;;-0.20;99.90;;;;;;5005273;28;20096;-77
2021/12/22 12:32:50;;;;;;;28.53;25.43;;;-0.20;99.90;;;;;;5042539;28;20087;-76
2021/12/22 12:38:16;;;;;;;27.90;24.27;;;-0.10;99.90;;;;;;5038562;28;20036;-75
2021/12/22 12:41:05;;;;;;;24.97;21.83;;;-0.10;99.90;;;;;;5017221;28;20567;-76
2021/12/22 12:44:02;;;;;;;26.67;23.40;;;0.00;99.90;;;;;;5022844;28;20096;-78
2021/12/22 12:46:35;;;;;;;25.00;21.93;;;-0.10;99.90;;;;;;5044612;28;20060;-76
2021/12/22 12:49:07;;;;;;;24.67;22.07;;;0.00;99.90;;;;;;5028944;28;20507;-76
2021/12/22 12:51:40;;;;;;;24.30;21.70;;;-0.10;99.90;;;;;;5047040;28;20506;-76
2021/12/22 12:54:16;;;;;;;26.60;22.67;;;-0.10;99.90;;;;;;5027852;28;20045;-76
2021/12/22 12:56:50;;;;;;;25.93;22.40;;;-0.10;99.90;;;;;;5029172;28;20049;-76
2021/12/22 12:59:25;;;;;;;25.53;22.73;;;0.00;99.90;;;;;;5037451;28;20058;-76
2021/12/22 13:01:50;;;;;;;24.67;22.07;;;-0.10;99.90;;;;;;5010259;28;20057;-76
2021/12/22 13:04:36;;;;;;;25.97;23.27;;;-0.10;99.90;;;;;;5010240;28;20057;-75
2021/12/22 13:07:14;;;;;;;25.93;22.20;;;-0.10;99.90;;;;;;5017696;28;20577;-75
2021/12/22 13:09:40;;;;;;;25.30;22.63;;;-0.10;99.90;;;;;;5030201;28;20048;-75